createdAt,value
2018-06-12T00:00:08.594Z,0.00
2018-06-12T00:01:08.505Z,0.00
2018-06-12T00:02:08.414Z,0.00
2018-06-12T00:03:08.359Z,0.00
2018-06-12T00:04:08.327Z,0.00
2018-06-12T00:05:08.145Z,0.00
2018-06-12T00:06:08.057Z,0.00
2018-06-12T00:07:07.967Z,0.00
2018-06-12T00:08:07.905Z,0.00
2018-06-12T00:09:07.787Z,0.00
2018-06-12T00:10:07.695Z,0.00
2018-06-12T00:11:07.694Z,0.00
2018-06-12T00:12:07.515Z,0.00
2018-06-12T00:13:07.458Z,0.00
2018-06-12T00:14:07.331Z,0.00
2018-06-12T00:15:07.244Z,0.00
2018-06-12T00:16:07.154Z,0.00
2018-06-12T00:17:07.069Z,0.00
2018-06-12T00:18:07.100Z,0.00
2018-06-12T00:19:06.884Z,0.00
2018-06-12T00:20:06.795Z,0.00
2018-06-12T00:21:06.709Z,0.00
2018-06-12T00:22:06.616Z,0.00
2018-06-12T00:23:06.557Z,0.00
2018-06-12T00:24:06.440Z,0.00
2018-06-12T00:25:06.432Z,0.00
2018-06-12T00:26:06.257Z,0.00
2018-06-12T00:27:06.177Z,0.00
2018-06-12T00:28:06.109Z,0.00
2018-06-12T00:29:05.989Z,0.00
2018-06-12T00:30:05.893Z,0.00
2018-06-12T00:31:05.808Z,0.00
2018-06-12T00:32:05.803Z,0.00
2018-06-12T00:33:05.653Z,0.00
2018-06-12T00:34:05.534Z,0.00
2018-06-12T00:35:05.442Z,0.00
2018-06-12T00:36:05.352Z,0.00
2018-06-12T00:37:05.262Z,0.00
2018-06-12T00:38:05.204Z,0.00
2018-06-12T00:39:05.180Z,0.00
2018-06-12T00:40:04.994Z,0.00
2018-06-12T00:41:04.902Z,0.00
2018-06-12T00:42:04.811Z,0.00
2018-06-12T00:43:04.756Z,0.00
2018-06-12T00:44:04.635Z,0.00
2018-06-12T00:45:04.543Z,0.00
2018-06-12T00:46:04.549Z,0.00
2018-06-12T00:47:04.358Z,0.00
2018-06-12T00:48:04.301Z,0.00
2018-06-12T00:49:04.179Z,0.00
2018-06-12T00:50:04.090Z,0.00
2018-06-12T00:51:03.999Z,0.00
2018-06-12T00:52:03.905Z,0.00
2018-06-12T00:53:03.912Z,0.00
2018-06-12T00:54:03.766Z,0.00
2018-06-12T00:55:03.638Z,0.00
2018-06-12T00:56:03.552Z,0.00
2018-06-12T00:57:03.460Z,0.00
2018-06-12T00:58:03.397Z,0.00
2018-06-12T00:59:03.284Z,0.00
2018-06-12T01:00:03.292Z,0.00
2018-06-12T01:01:03.103Z,0.00
2018-06-12T01:02:03.005Z,0.00
2018-06-12T01:03:02.951Z,0.00
2018-06-12T01:04:02.824Z,0.00
2018-06-12T01:05:02.736Z,0.00
2018-06-12T01:06:02.645Z,0.00
2018-06-12T01:07:02.557Z,0.00
2018-06-12T01:08:02.497Z,0.00
2018-06-12T01:09:02.377Z,0.00
2018-06-12T01:10:02.283Z,0.00
2018-06-12T01:11:02.193Z,0.00
2018-06-12T01:12:02.106Z,0.00
2018-06-12T01:13:02.016Z,0.00
2018-06-12T01:14:01.955Z,0.00
2018-06-12T01:15:01.835Z,0.00
2018-06-12T01:16:01.744Z,0.00
2018-06-12T01:17:01.656Z,0.00
2018-06-12T01:18:01.564Z,0.00
2018-06-12T01:19:01.507Z,0.00
2018-06-12T01:20:01.402Z,0.00
2018-06-12T01:21:01.301Z,0.00
2018-06-12T01:22:01.205Z,0.00
2018-06-12T01:23:01.113Z,0.00
2018-06-12T01:24:01.059Z,0.00
2018-06-12T01:25:00.931Z,0.00
2018-06-12T01:26:00.842Z,0.00
2018-06-12T01:27:00.752Z,0.00
2018-06-12T01:28:00.662Z,0.00
2018-06-12T01:29:00.604Z,0.00
2018-06-12T01:30:00.495Z,0.00
2018-06-12T01:31:00.395Z,0.00
2018-06-12T01:32:00.299Z,0.00
2018-06-12T01:33:00.210Z,0.00
2018-06-12T01:34:00.153Z,0.00
2018-06-12T01:35:00.033Z,0.00
2018-06-12T01:35:59.941Z,0.00
2018-06-12T01:36:59.883Z,0.00
2018-06-12T01:37:59.757Z,0.00
2018-06-12T01:38:59.703Z,0.00
2018-06-12T01:39:59.584Z,0.00
2018-06-12T01:40:59.491Z,0.00
2018-06-12T01:41:59.399Z,0.00
2018-06-12T01:42:59.309Z,0.00
2018-06-12T01:43:59.251Z,0.00
2018-06-12T01:44:59.129Z,0.00
2018-06-12T01:45:59.035Z,0.00
2018-06-12T01:46:58.946Z,0.00
2018-06-12T01:47:58.859Z,0.00
2018-06-12T01:48:58.799Z,0.00
2018-06-12T01:49:58.676Z,0.00
2018-06-12T01:50:58.587Z,0.00
2018-06-12T01:51:58.497Z,0.00
2018-06-12T01:52:58.409Z,0.00
2018-06-12T01:53:58.347Z,0.00
2018-06-12T01:54:58.226Z,0.00
2018-06-12T01:55:58.136Z,0.00
2018-06-12T01:56:58.053Z,0.00
2018-06-12T01:57:57.954Z,0.00
2018-06-12T01:58:57.894Z,0.00
2018-06-12T01:59:57.777Z,0.00
2018-06-12T02:00:57.687Z,0.00
2018-06-12T02:01:57.598Z,0.00
2018-06-12T02:02:57.504Z,0.00
2018-06-12T02:03:57.444Z,0.00
2018-06-12T02:04:57.324Z,0.00
2018-06-12T02:05:57.236Z,0.00
2018-06-12T02:06:57.144Z,0.00
2018-06-12T02:07:57.055Z,0.00
2018-06-12T02:08:56.997Z,0.00
2018-06-12T02:09:56.872Z,0.00
2018-06-12T02:10:56.782Z,0.00
2018-06-12T02:11:56.699Z,0.00
2018-06-12T02:12:56.604Z,0.00
2018-06-12T02:13:56.545Z,0.00
2018-06-12T02:14:56.425Z,0.00
2018-06-12T02:15:56.335Z,0.00
2018-06-12T02:16:56.243Z,0.00
2018-06-12T02:17:56.150Z,0.00
2018-06-12T02:18:56.093Z,0.00
2018-06-12T02:19:55.972Z,0.00
2018-06-12T02:20:55.881Z,0.00
2018-06-12T02:21:55.788Z,0.00
2018-06-12T02:22:55.807Z,0.00
2018-06-12T02:23:55.615Z,0.00
2018-06-12T02:24:55.549Z,0.00
2018-06-12T02:25:55.431Z,0.00
2018-06-12T02:26:55.339Z,0.00
2018-06-12T02:27:55.248Z,0.00
2018-06-12T02:28:55.160Z,0.00
2018-06-12T02:29:55.103Z,0.00
2018-06-12T02:30:54.985Z,0.00
2018-06-12T02:31:54.887Z,4.00
2018-06-12T02:32:54.802Z,4.00
2018-06-12T02:33:54.719Z,4.00
2018-06-12T02:34:54.652Z,4.00
2018-06-12T02:35:54.526Z,0.00
2018-06-12T02:36:54.528Z,4.00
2018-06-12T02:37:54.345Z,4.00
2018-06-12T02:38:54.258Z,8.00
2018-06-12T02:39:54.199Z,4.00
2018-06-12T02:40:54.074Z,8.00
2018-06-12T02:41:53.984Z,12.00
2018-06-12T02:42:53.893Z,8.00
2018-06-12T02:43:53.913Z,12.00
2018-06-12T02:44:53.747Z,12.00
2018-06-12T02:45:53.625Z,12.00
2018-06-12T02:46:53.535Z,16.00
2018-06-12T02:47:53.446Z,20.00
2018-06-12T02:48:53.355Z,24.00
2018-06-12T02:49:53.296Z,24.00
2018-06-12T02:50:53.266Z,32.00
2018-06-12T02:51:53.088Z,32.00
2018-06-12T02:52:52.993Z,32.00
2018-06-12T02:53:52.903Z,36.00
2018-06-12T02:54:52.843Z,36.00
2018-06-12T02:55:52.724Z,40.00
2018-06-12T02:56:52.637Z,44.00
2018-06-12T02:57:52.632Z,48.00
2018-06-12T02:58:52.457Z,52.00
2018-06-12T02:59:52.394Z,60.00
2018-06-12T03:00:52.273Z,68.00
2018-06-12T03:01:52.180Z,72.00
2018-06-12T03:02:52.089Z,80.00
2018-06-12T03:03:52.003Z,84.00
2018-06-12T03:04:52.021Z,84.00
2018-06-12T03:05:51.822Z,88.00
2018-06-12T03:06:51.729Z,88.00
2018-06-12T03:07:51.641Z,88.00
2018-06-12T03:08:51.553Z,92.00
2018-06-12T03:09:51.491Z,100.00
2018-06-12T03:10:51.368Z,108.00
2018-06-12T03:11:51.377Z,112.00
2018-06-12T03:12:51.190Z,120.00
2018-06-12T03:13:51.097Z,124.00
2018-06-12T03:14:51.038Z,124.00
2018-06-12T03:15:50.918Z,132.00
2018-06-12T03:16:50.834Z,132.00
2018-06-12T03:17:50.739Z,132.00
2018-06-12T03:18:50.739Z,128.00
2018-06-12T03:19:50.587Z,136.00
2018-06-12T03:20:50.466Z,156.00
2018-06-12T03:21:50.378Z,180.00
2018-06-12T03:22:50.286Z,200.00
2018-06-12T03:23:50.225Z,216.00
2018-06-12T03:24:50.140Z,240.00
2018-06-12T03:25:50.116Z,264.00
2018-06-12T03:26:49.928Z,260.00
2018-06-12T03:27:49.835Z,288.00
2018-06-12T03:28:49.745Z,312.00
2018-06-12T03:29:49.686Z,316.00
2018-06-12T03:30:49.565Z,316.00
2018-06-12T03:31:49.475Z,296.00
2018-06-12T03:32:49.474Z,300.00
2018-06-12T03:33:49.293Z,308.00
2018-06-12T03:34:49.236Z,296.00
2018-06-12T03:35:49.114Z,288.00
2018-06-12T03:36:49.024Z,308.00
2018-06-12T03:37:48.935Z,356.00
2018-06-12T03:38:48.846Z,388.00
2018-06-12T03:39:48.784Z,428.00
2018-06-12T03:40:48.661Z,428.00
2018-06-12T03:41:48.573Z,424.00
2018-06-12T03:42:48.488Z,436.00
2018-06-12T03:43:48.394Z,440.00
2018-06-12T03:44:48.336Z,460.00
2018-06-12T03:45:48.303Z,484.00
2018-06-12T03:46:48.121Z,504.00
2018-06-12T03:47:48.035Z,536.00
2018-06-12T03:48:47.943Z,596.00
2018-06-12T03:49:47.885Z,632.00
2018-06-12T03:50:47.761Z,652.00
2018-06-12T03:51:47.674Z,660.00
2018-06-12T03:52:47.587Z,672.00
2018-06-12T03:53:47.493Z,696.00
2018-06-12T03:54:47.408Z,760.00
2018-06-12T03:55:47.344Z,836.00
2018-06-12T03:56:47.224Z,896.00
2018-06-12T03:57:47.131Z,924.00
2018-06-12T03:58:47.044Z,884.00
2018-06-12T03:59:46.952Z,864.00
2018-06-12T04:00:46.893Z,840.00
2018-06-12T04:01:46.769Z,816.00
2018-06-12T04:02:46.682Z,784.00
2018-06-12T04:03:46.593Z,764.00
2018-06-12T04:04:46.503Z,748.00
2018-06-12T04:05:46.443Z,724.00
2018-06-12T04:06:46.321Z,700.00
2018-06-12T04:07:46.253Z,680.00
2018-06-12T04:08:46.143Z,644.00
2018-06-12T04:09:46.051Z,592.00
2018-06-12T04:10:45.994Z,536.00
2018-06-12T04:11:45.871Z,492.00
2018-06-12T04:12:45.780Z,468.00
2018-06-12T04:13:45.692Z,468.00
2018-06-12T04:14:45.616Z,484.00
2018-06-12T04:15:45.543Z,516.00
2018-06-12T04:16:45.422Z,580.00
2018-06-12T04:17:45.331Z,656.00
2018-06-12T04:18:45.239Z,732.00
2018-06-12T04:19:45.147Z,804.00
2018-06-12T04:20:45.088Z,864.00
2018-06-12T04:21:44.967Z,904.00
2018-06-12T04:22:44.879Z,936.00
2018-06-12T04:23:44.786Z,964.00
2018-06-12T04:24:44.698Z,992.00
2018-06-12T04:25:44.637Z,1024.00
2018-06-12T04:26:44.517Z,1016.00
2018-06-12T04:27:44.427Z,1024.00
2018-06-12T04:28:44.337Z,1028.00
2018-06-12T04:29:44.245Z,1016.00
2018-06-12T04:30:44.185Z,1020.00
2018-06-12T04:31:44.065Z,1096.00
2018-06-12T04:32:43.977Z,1204.00
2018-06-12T04:33:43.886Z,1280.00
2018-06-12T04:34:43.796Z,1356.00
2018-06-12T04:35:43.736Z,1392.00
2018-06-12T04:36:43.613Z,1392.00
2018-06-12T04:37:43.523Z,1388.00
2018-06-12T04:38:43.432Z,1396.00
2018-06-12T04:39:43.345Z,1420.00
2018-06-12T04:40:43.284Z,1472.00
2018-06-12T04:41:43.161Z,1516.00
2018-06-12T04:42:43.075Z,1584.00
2018-06-12T04:43:42.984Z,1668.00
2018-06-12T04:44:42.890Z,1780.00
2018-06-12T04:45:42.830Z,1904.00
2018-06-12T04:46:42.711Z,2012.00
2018-06-12T04:47:42.638Z,2080.00
2018-06-12T04:48:42.532Z,2152.00
2018-06-12T04:49:42.452Z,2236.00
2018-06-12T04:50:42.380Z,2376.00
2018-06-12T04:51:42.261Z,2532.00
2018-06-12T04:52:42.171Z,2656.00
2018-06-12T04:53:42.075Z,2764.00
2018-06-12T04:54:42.009Z,2876.00
2018-06-12T04:55:41.929Z,3028.00
2018-06-12T04:56:41.808Z,3216.00
2018-06-12T04:57:41.716Z,3388.00
2018-06-12T04:58:41.629Z,3520.00
2018-06-12T04:59:41.537Z,3616.00
2018-06-12T05:00:41.480Z,3720.00
2018-06-12T05:01:41.356Z,3872.00
2018-06-12T05:02:41.268Z,4060.00
2018-06-12T05:03:41.466Z,4272.00
2018-06-12T05:04:41.086Z,4500.00
2018-06-12T05:05:41.027Z,4720.00
2018-06-12T05:06:40.906Z,4896.00
2018-06-12T05:07:40.817Z,5152.00
2018-06-12T05:08:40.731Z,5456.00
2018-06-12T05:09:40.636Z,5772.00
2018-06-12T05:10:40.673Z,5948.00
2018-06-12T05:11:40.456Z,5860.00
2018-06-12T05:12:40.368Z,5908.00
2018-06-12T05:13:40.288Z,5788.00
2018-06-12T05:14:40.187Z,5620.00
2018-06-12T05:15:40.127Z,5484.00
2018-06-12T05:16:40.003Z,5460.00
2018-06-12T05:17:40.007Z,5332.00
2018-06-12T05:18:39.821Z,5628.00
2018-06-12T05:19:39.764Z,5888.00
2018-06-12T05:20:39.679Z,6008.00
2018-06-12T05:21:39.553Z,6176.00
2018-06-12T05:22:39.464Z,6520.00
2018-06-12T05:23:39.373Z,6888.00
2018-06-12T05:24:39.378Z,6800.00
2018-06-12T05:25:39.217Z,6560.00
2018-06-12T05:26:39.137Z,6144.00
2018-06-12T05:27:39.016Z,6220.00
2018-06-12T05:28:38.926Z,6292.00
2018-06-12T05:29:38.835Z,5904.00
2018-06-12T05:30:38.748Z,5612.00
2018-06-12T05:31:38.781Z,5568.00
2018-06-12T05:32:38.566Z,5880.00
2018-06-12T05:33:38.476Z,6092.00
2018-06-12T05:34:38.384Z,6668.00
2018-06-12T05:35:38.296Z,7240.00
2018-06-12T05:36:38.239Z,7648.00
2018-06-12T05:37:38.114Z,8228.00
2018-06-12T05:38:38.117Z,8440.00
2018-06-12T05:39:37.935Z,8340.00
2018-06-12T05:40:37.849Z,8476.00
2018-06-12T05:41:37.786Z,8784.00
2018-06-12T05:42:37.670Z,9196.00
2018-06-12T05:43:37.581Z,10048.00
2018-06-12T05:44:37.490Z,11012.00
2018-06-12T05:45:37.493Z,11408.00
2018-06-12T05:46:37.343Z,11064.00
2018-06-12T05:47:37.221Z,10688.00
2018-06-12T05:48:37.129Z,10920.00
2018-06-12T05:49:37.041Z,10984.00
2018-06-12T05:50:36.952Z,10780.00
2018-06-12T05:51:36.894Z,10904.00
2018-06-12T05:52:36.877Z,10256.00
2018-06-12T05:53:36.682Z,10220.00
2018-06-12T05:54:36.593Z,9740.00
2018-06-12T05:55:36.506Z,9420.00
2018-06-12T05:56:36.444Z,8704.00
2018-06-12T05:57:36.324Z,8556.00
2018-06-12T05:58:36.233Z,8668.00
2018-06-12T05:59:36.255Z,8788.00
2018-06-12T06:00:36.057Z,9008.00
2018-06-12T06:01:36.000Z,9664.00
2018-06-12T06:02:35.878Z,9928.00
2018-06-12T06:03:35.786Z,9656.00
2018-06-12T06:04:35.699Z,9036.00
2018-06-12T06:05:35.610Z,7740.00
2018-06-12T06:06:35.651Z,7368.00
2018-06-12T06:07:35.435Z,7056.00
2018-06-12T06:08:35.344Z,7064.00
2018-06-12T06:09:35.251Z,7100.00
2018-06-12T06:10:35.203Z,7292.00
2018-06-12T06:11:35.108Z,7612.00
2018-06-12T06:12:34.985Z,7796.00
2018-06-12T06:13:34.988Z,8148.00
2018-06-12T06:14:34.811Z,8616.00
2018-06-12T06:15:34.716Z,9272.00
2018-06-12T06:16:34.666Z,9788.00
2018-06-12T06:17:34.541Z,10552.00
2018-06-12T06:18:34.447Z,11524.00
2018-06-12T06:19:34.362Z,12640.00
2018-06-12T06:20:34.380Z,13632.00
2018-06-12T06:21:34.213Z,14180.00
2018-06-12T06:22:34.168Z,13668.00
2018-06-12T06:23:34.006Z,13692.00
2018-06-12T06:24:33.915Z,14216.00
2018-06-12T06:25:33.823Z,14600.00
2018-06-12T06:26:33.771Z,15012.00
2018-06-12T06:27:33.740Z,16416.00
2018-06-12T06:28:33.557Z,17920.00
2018-06-12T06:29:33.470Z,19232.00
2018-06-12T06:30:33.382Z,20416.00
2018-06-12T06:31:33.323Z,20608.00
2018-06-12T06:32:33.209Z,20256.00
2018-06-12T06:33:33.111Z,19264.00
2018-06-12T06:34:33.024Z,18688.00
2018-06-12T06:35:32.935Z,17536.00
2018-06-12T06:36:32.876Z,16020.00
2018-06-12T06:37:32.759Z,15188.00
2018-06-12T06:38:32.667Z,15948.00
2018-06-12T06:39:32.623Z,17472.00
2018-06-12T06:40:32.493Z,19168.00
2018-06-12T06:41:32.434Z,21152.00
2018-06-12T06:42:32.317Z,24288.00
2018-06-12T06:43:32.228Z,33056.00
2018-06-12T06:44:32.139Z,31648.00
2018-06-12T06:45:32.054Z,33568.00
2018-06-12T06:46:31.995Z,41856.00
2018-06-12T06:47:31.873Z,28352.00
2018-06-12T06:48:31.783Z,24544.00
2018-06-12T06:49:31.696Z,23488.00
2018-06-12T06:50:31.610Z,23296.00
2018-06-12T06:51:31.554Z,23936.00
2018-06-12T06:52:31.432Z,24480.00
2018-06-12T06:53:31.412Z,24704.00
2018-06-12T06:54:31.260Z,23808.00
2018-06-12T06:55:31.168Z,20896.00
2018-06-12T06:56:31.083Z,19232.00
2018-06-12T06:57:31.025Z,20032.00
2018-06-12T06:58:30.911Z,20064.00
2018-06-12T06:59:30.821Z,18368.00
2018-06-12T07:00:30.730Z,15520.00
2018-06-12T07:01:30.642Z,13628.00
2018-06-12T07:02:30.593Z,12776.00
2018-06-12T07:03:30.466Z,11580.00
2018-06-12T07:04:30.381Z,10612.00
2018-06-12T07:05:30.294Z,10812.00
2018-06-12T07:06:30.210Z,10840.00
2018-06-12T07:07:30.150Z,10728.00
2018-06-12T07:08:30.032Z,10596.00
2018-06-12T07:09:29.941Z,11008.00
2018-06-12T07:10:29.857Z,11844.00
2018-06-12T07:11:29.772Z,12580.00
2018-06-12T07:12:29.709Z,13304.00
2018-06-12T07:13:29.591Z,14064.00
2018-06-12T07:14:29.503Z,14928.00
2018-06-12T07:15:29.422Z,15428.00
2018-06-12T07:16:29.330Z,15868.00
2018-06-12T07:17:29.272Z,17272.00
2018-06-12T07:18:29.152Z,19552.00
2018-06-12T07:19:29.063Z,20416.00
2018-06-12T07:20:28.981Z,20416.00
2018-06-12T07:21:28.888Z,19072.00
2018-06-12T07:22:28.837Z,18368.00
2018-06-12T07:23:28.714Z,18208.00
2018-06-12T07:24:28.626Z,17792.00
2018-06-12T07:25:28.537Z,17728.00
2018-06-12T07:26:28.450Z,18112.00
2018-06-12T07:27:28.410Z,18624.00
2018-06-12T07:28:28.277Z,19008.00
2018-06-12T07:29:28.192Z,19104.00
2018-06-12T07:30:28.102Z,18784.00
2018-06-12T07:31:28.016Z,17536.00
2018-06-12T07:32:27.958Z,16048.00
2018-06-12T07:33:27.838Z,15136.00
2018-06-12T07:34:27.749Z,14588.00
2018-06-12T07:35:27.661Z,13488.00
2018-06-12T07:36:27.578Z,12408.00
2018-06-12T07:37:27.562Z,11312.00
2018-06-12T07:38:27.404Z,10220.00
2018-06-12T07:39:27.318Z,9560.00
2018-06-12T07:40:27.228Z,9468.00
2018-06-12T07:41:27.141Z,9652.00
2018-06-12T07:42:27.083Z,10344.00
2018-06-12T07:43:27.107Z,11256.00
2018-06-12T07:44:26.876Z,11912.00
2018-06-12T07:45:26.788Z,12128.00
2018-06-12T07:46:26.705Z,12028.00
2018-06-12T07:47:26.648Z,13384.00
2018-06-12T07:48:26.525Z,14604.00
2018-06-12T07:49:26.438Z,14820.00
2018-06-12T07:50:26.445Z,12236.00
2018-06-12T07:51:26.267Z,10576.00
2018-06-12T07:52:26.213Z,10600.00
2018-06-12T07:53:26.090Z,11140.00
2018-06-12T07:54:26.005Z,11028.00
2018-06-12T07:55:25.918Z,13408.00
2018-06-12T07:56:25.833Z,14356.00
2018-06-12T07:57:25.869Z,15684.00
2018-06-12T07:58:25.653Z,16512.00
2018-06-12T07:59:25.566Z,18080.00
2018-06-12T08:00:25.485Z,18784.00
2018-06-12T08:01:25.392Z,18592.00
2018-06-12T08:02:25.331Z,16300.00
2018-06-12T08:03:25.216Z,13884.00
2018-06-12T08:04:25.221Z,12636.00
2018-06-12T08:05:25.041Z,9788.00
2018-06-12T08:06:24.954Z,8892.00
2018-06-12T08:07:24.897Z,9572.00
2018-06-12T08:08:24.780Z,11032.00
2018-06-12T08:09:24.691Z,12232.00
2018-06-12T08:10:24.600Z,13380.00
2018-06-12T08:11:24.610Z,13936.00
2018-06-12T08:12:24.457Z,13996.00
2018-06-12T08:13:24.342Z,14424.00
2018-06-12T08:14:24.255Z,15260.00
2018-06-12T08:15:24.168Z,15408.00
2018-06-12T08:16:24.080Z,15076.00
2018-06-12T08:17:24.027Z,15088.00
2018-06-12T08:18:23.902Z,16120.00
2018-06-12T08:19:23.814Z,16400.00
2018-06-12T08:20:23.727Z,15068.00
2018-06-12T08:21:23.643Z,12812.00
2018-06-12T08:22:23.582Z,10444.00
2018-06-12T08:23:23.466Z,8800.00
2018-06-12T08:24:23.375Z,7596.00
2018-06-12T08:25:23.287Z,6136.00
2018-06-12T08:26:23.200Z,6372.00
2018-06-12T08:27:23.151Z,6064.00
2018-06-12T08:28:23.026Z,6208.00
2018-06-12T08:29:22.938Z,7172.00
2018-06-12T08:30:22.935Z,7592.00
2018-06-12T08:31:22.776Z,8396.00
2018-06-12T08:32:22.677Z,9940.00
2018-06-12T08:33:22.614Z,10916.00
2018-06-12T08:34:22.501Z,11680.00
2018-06-12T08:35:22.411Z,12292.00
2018-06-12T08:36:22.321Z,13596.00
2018-06-12T08:37:22.237Z,15380.00
2018-06-12T08:38:22.178Z,16636.00
2018-06-12T08:39:22.059Z,17140.00
2018-06-12T08:40:21.973Z,17100.00
2018-06-12T08:41:21.885Z,17176.00
2018-06-12T08:42:21.798Z,16776.00
2018-06-12T08:43:21.742Z,16132.00
2018-06-12T08:44:21.621Z,15428.00
2018-06-12T08:45:21.531Z,14892.00
2018-06-12T08:46:21.446Z,14900.00
2018-06-12T08:47:21.358Z,15512.00
2018-06-12T08:48:21.303Z,16356.00
2018-06-12T08:49:21.184Z,16508.00
2018-06-12T08:50:21.098Z,15632.00
2018-06-12T08:51:21.011Z,15508.00
2018-06-12T08:52:20.918Z,17028.00
2018-06-12T08:53:20.862Z,19200.00
2018-06-12T08:54:20.743Z,20896.00
2018-06-12T08:55:20.656Z,22048.00
2018-06-12T08:56:20.573Z,23872.00
2018-06-12T08:57:20.482Z,25920.00
2018-06-12T08:58:20.424Z,26272.00
2018-06-12T08:59:20.312Z,23808.00
2018-06-12T09:00:20.220Z,20224.00
2018-06-12T09:01:20.129Z,16992.00
2018-06-12T09:02:20.044Z,16108.00
2018-06-12T09:03:19.991Z,16276.00
2018-06-12T09:04:19.878Z,16744.00
2018-06-12T09:05:19.782Z,17856.00
2018-06-12T09:06:19.789Z,18592.00
2018-06-12T09:07:19.608Z,17696.00
2018-06-12T09:08:19.556Z,15780.00
2018-06-12T09:09:19.432Z,14336.00
2018-06-12T09:10:19.348Z,14160.00
2018-06-12T09:11:19.260Z,14880.00
2018-06-12T09:12:19.174Z,16376.00
2018-06-12T09:13:19.208Z,17696.00
2018-06-12T09:14:18.997Z,18080.00
2018-06-12T09:15:18.914Z,16708.00
2018-06-12T09:16:18.828Z,15904.00
2018-06-12T09:17:18.740Z,15640.00
2018-06-12T09:18:18.696Z,15336.00
2018-06-12T09:19:18.565Z,15800.00
2018-06-12T09:20:18.569Z,16220.00
2018-06-12T09:21:18.392Z,16204.00
2018-06-12T09:22:18.306Z,15828.00
2018-06-12T09:23:18.251Z,15276.00
2018-06-12T09:24:18.134Z,14888.00
2018-06-12T09:25:18.044Z,14760.00
2018-06-12T09:26:17.964Z,14428.00
2018-06-12T09:27:17.965Z,13916.00
2018-06-12T09:28:17.820Z,13076.00
2018-06-12T09:29:17.697Z,12312.00
2018-06-12T09:30:17.610Z,11900.00
2018-06-12T09:31:17.525Z,11836.00
2018-06-12T09:32:17.439Z,10816.00
2018-06-12T09:33:17.386Z,10160.00
2018-06-12T09:34:17.356Z,10068.00
2018-06-12T09:35:17.177Z,10828.00
2018-06-12T09:36:17.089Z,11284.00
2018-06-12T09:37:17.003Z,10892.00
2018-06-12T09:38:16.948Z,10492.00
2018-06-12T09:39:16.844Z,10820.00
2018-06-12T09:40:16.743Z,10088.00
2018-06-12T09:41:16.653Z,9592.00
2018-06-12T09:42:16.568Z,10372.00
2018-06-12T09:43:16.516Z,11924.00
2018-06-12T09:44:16.396Z,12404.00
2018-06-12T09:45:16.310Z,14404.00
2018-06-12T09:46:16.221Z,14984.00
2018-06-12T09:47:16.136Z,14172.00
2018-06-12T09:48:16.082Z,15652.00
2018-06-12T09:49:15.961Z,17408.00
2018-06-12T09:50:15.873Z,18176.00
2018-06-12T09:51:15.786Z,19648.00
2018-06-12T09:52:15.699Z,19744.00
2018-06-12T09:53:15.647Z,18176.00
2018-06-12T09:54:15.527Z,17376.00
2018-06-12T09:55:15.437Z,17072.00
2018-06-12T09:56:15.350Z,17888.00
2018-06-12T09:57:15.263Z,18752.00
2018-06-12T09:58:15.175Z,18944.00
2018-06-12T09:59:15.119Z,18080.00
2018-06-12T10:00:15.000Z,17664.00
2018-06-12T10:01:14.915Z,18016.00
2018-06-12T10:02:14.825Z,18624.00
2018-06-12T10:03:14.741Z,18976.00
2018-06-12T10:04:14.680Z,19552.00
2018-06-12T10:05:14.564Z,20960.00
2018-06-12T10:06:14.480Z,23200.00
2018-06-12T10:07:14.387Z,24864.00
2018-06-12T10:08:14.307Z,26208.00
2018-06-12T10:09:14.715Z,27008.00
2018-06-12T10:10:14.127Z,25984.00
2018-06-12T10:11:14.042Z,24000.00
2018-06-12T10:12:13.961Z,22976.00
2018-06-12T10:13:13.869Z,22624.00
2018-06-12T10:14:13.815Z,21664.00
2018-06-12T10:15:13.691Z,19264.00
2018-06-12T10:16:13.607Z,17312.00
2018-06-12T10:17:13.519Z,15860.00
2018-06-12T10:18:13.432Z,15028.00
2018-06-12T10:19:13.374Z,14564.00
2018-06-12T10:20:13.265Z,14276.00
2018-06-12T10:21:13.172Z,14188.00
2018-06-12T10:22:13.083Z,14160.00
2018-06-12T10:23:12.998Z,13820.00
2018-06-12T10:24:12.943Z,13524.00
2018-06-12T10:25:12.826Z,12896.00
2018-06-12T10:26:12.738Z,12212.00
2018-06-12T10:27:12.655Z,11604.00
2018-06-12T10:28:12.567Z,11520.00
2018-06-12T10:29:12.513Z,11220.00
2018-06-12T10:30:12.391Z,10660.00
2018-06-12T10:31:12.304Z,11136.00
2018-06-12T10:32:12.218Z,12568.00
2018-06-12T10:33:12.131Z,13324.00
2018-06-12T10:34:12.074Z,13480.00
2018-06-12T10:35:11.961Z,13976.00
2018-06-12T10:36:11.872Z,14172.00
2018-06-12T10:37:11.843Z,14808.00
2018-06-12T10:38:11.700Z,15296.00
2018-06-12T10:39:11.644Z,14344.00
2018-06-12T10:40:11.524Z,14524.00
2018-06-12T10:41:11.439Z,15264.00
2018-06-12T10:42:11.349Z,15544.00
2018-06-12T10:43:11.264Z,15408.00
2018-06-12T10:44:11.209Z,15072.00
2018-06-12T10:45:11.091Z,14576.00
2018-06-12T10:46:11.001Z,14156.00
2018-06-12T10:47:10.919Z,13548.00
2018-06-12T10:48:10.829Z,12664.00
2018-06-12T10:49:10.774Z,12612.00
2018-06-12T10:50:10.661Z,12836.00
2018-06-12T10:51:10.680Z,12924.00
2018-06-12T10:52:10.484Z,12956.00
2018-06-12T10:53:10.394Z,12768.00
2018-06-12T10:54:10.340Z,12932.00
2018-06-12T10:55:10.222Z,13156.00
2018-06-12T10:56:10.135Z,13476.00
2018-06-12T10:57:10.048Z,13944.00
2018-06-12T10:58:10.057Z,14512.00
2018-06-12T10:59:09.907Z,15248.00
2018-06-12T11:00:09.788Z,16120.00
2018-06-12T11:01:09.699Z,17280.00
2018-06-12T11:02:09.611Z,18368.00
2018-06-12T11:03:09.530Z,19296.00
2018-06-12T11:04:09.473Z,20288.00
2018-06-12T11:05:09.447Z,20960.00
2018-06-12T11:06:09.271Z,20768.00
2018-06-12T11:07:09.179Z,19488.00
2018-06-12T11:08:09.092Z,17728.00
2018-06-12T11:09:09.042Z,15944.00
2018-06-12T11:10:08.921Z,14916.00
2018-06-12T11:11:08.836Z,14720.00
2018-06-12T11:12:08.841Z,15284.00
2018-06-12T11:13:08.662Z,15912.00
2018-06-12T11:14:08.604Z,16156.00
2018-06-12T11:15:08.488Z,16496.00
2018-06-12T11:16:08.401Z,16404.00
2018-06-12T11:17:08.315Z,15568.00
2018-06-12T11:18:08.233Z,14792.00
2018-06-12T11:19:08.269Z,14228.00
2018-06-12T11:20:08.059Z,13732.00
2018-06-12T11:21:07.967Z,13880.00
2018-06-12T11:22:07.882Z,14344.00
2018-06-12T11:23:07.798Z,14868.00
2018-06-12T11:24:07.763Z,15040.00
2018-06-12T11:25:07.629Z,14800.00
2018-06-12T11:26:07.633Z,14412.00
2018-06-12T11:27:07.450Z,14068.00
2018-06-12T11:28:07.366Z,13836.00
2018-06-12T11:29:07.278Z,13608.00
2018-06-12T11:30:07.222Z,13396.00
2018-06-12T11:31:07.105Z,13156.00
2018-06-12T11:32:07.023Z,12832.00
2018-06-12T11:33:07.060Z,12208.00
2018-06-12T11:34:06.848Z,11512.00
2018-06-12T11:35:06.796Z,11128.00
2018-06-12T11:36:06.675Z,11016.00
2018-06-12T11:37:06.588Z,11020.00
2018-06-12T11:38:06.502Z,10848.00
2018-06-12T11:39:06.419Z,10316.00
2018-06-12T11:40:06.450Z,9556.00
2018-06-12T11:41:06.243Z,8888.00
2018-06-12T11:42:06.158Z,8300.00
2018-06-12T11:43:06.069Z,7780.00
2018-06-12T11:44:05.984Z,7660.00
2018-06-12T11:45:05.929Z,7712.00
2018-06-12T11:46:05.901Z,7920.00
2018-06-12T11:47:05.723Z,7852.00
2018-06-12T11:48:05.639Z,7904.00
2018-06-12T11:49:05.549Z,8092.00
2018-06-12T11:50:05.495Z,8404.00
2018-06-12T11:51:05.434Z,8392.00
2018-06-12T11:52:05.287Z,8232.00
2018-06-12T11:53:05.206Z,7924.00
2018-06-12T11:54:05.118Z,7704.00
2018-06-12T11:55:05.062Z,7868.00
2018-06-12T11:56:04.942Z,8248.00
2018-06-12T11:57:04.856Z,8332.00
2018-06-12T11:58:04.773Z,8708.00
2018-06-12T11:59:04.686Z,8880.00
2018-06-12T12:00:04.627Z,9116.00
2018-06-12T12:01:04.560Z,9024.00
2018-06-12T12:02:04.422Z,8624.00
2018-06-12T12:03:04.337Z,8280.00
2018-06-12T12:04:04.253Z,7816.00
2018-06-12T12:05:04.197Z,8000.00
2018-06-12T12:06:04.075Z,8344.00
2018-06-12T12:07:03.987Z,8968.00
2018-06-12T12:08:03.902Z,10084.00
2018-06-12T12:09:03.814Z,10704.00
2018-06-12T12:10:03.763Z,11212.00
2018-06-12T12:11:03.676Z,11380.00
2018-06-12T12:12:03.556Z,10304.00
2018-06-12T12:13:03.511Z,10012.00